Aérodrome :
LOGIN :

S'inscrire | Disclaimer

   EN    FR    IT 

 










Légende :    VFR   VFR Marginal   IFR   IFR Intensif   IFR Très Intensif
Visi : 
Plafond : 
>= 8 km
>= 3000ft
5 à 8 km
1000 à 3000 ft
1500m à 5 km
500 à 1000 ft
800 à 1500m
200 à 500 ft
< 800m
< 200 ft
Symboles :   Orages  Brouillard  Fortes neiges  Fortes précipitations  Vent > 20 kt
SIGMETs :   Divers  Orages  Givrage  Turbulence  Onde Orograph.  Cendres Volcan.






- Altitude de l'aérodrome : 90 ft
- Code IATA : NTE


LFRS - Nantes

DERNIER METAR :
  • 102200Z AUTO 00000KT CAVOK 23/19 Q1012 NOSIG

METARs EXPIRÉS :
  • 102130Z AUTO 23003KT CAVOK 23/19 Q1012 NOSIG
  • 102100Z AUTO 25002KT CAVOK 24/19 Q1012 NOSIG
  • 102030Z AUTO 24003KT CAVOK 25/19 Q1012 NOSIG
  • 102000Z AUTO 24004KT 9999 -RA NSC 25/20 Q1012 NOSIG
  • 101930Z AUTO 22004KT 180V240 CAVOK 27/20 Q1012 NOSIG

TAF TAF LFRS
Valide du 10 à 18h jusqu'au 12 à 00h UTC


101700Z 1018/1124 24006KT CAVOK
TEMPO 1100/1108 4000 BR BKN005
TEMPO 1108/1121 SHRA BKN080CB
PROB40
TEMPO 1112/1119 VRB15G30KT TSRA BKN060CB
ATIS : +33 2 40 05 12 74



MET'MAP, la Météo Aéronautique d'un coup d'oeil ! - Copyright ORBIFLY Décembre 2007 - Disclaimer

ORBIFLY MET'MAP TEAM :

Programmation & Développement : Alexandra Zaïnal
Sur une idée originale de : Baudouin d'Aumeries
Assistance à la programmation : Marc-Olivier Méhu
Soutien technique & logistique : Manuel Goepfert

Contact : metmap@orbifly.com




SOURCES & CREDITS :

   NOAA